createdAt,value
2019-04-25T00:00:55.685Z,0.00
2019-04-25T00:02:06.925Z,0.00
2019-04-25T00:03:18.144Z,0.00
2019-04-25T00:04:29.373Z,0.00
2019-04-25T00:05:42.410Z,0.00
2019-04-25T00:06:52.172Z,0.00
2019-04-25T00:08:03.048Z,0.00
2019-04-25T00:09:14.260Z,0.00
2019-04-25T00:10:25.500Z,0.00
2019-04-25T00:11:37.796Z,0.00
2019-04-25T00:12:48.056Z,0.00
2019-04-25T00:13:59.649Z,0.00
2019-04-25T00:15:11.225Z,0.00
2019-04-25T00:16:22.091Z,0.00
2019-04-25T00:17:33.311Z,0.00
2019-04-25T00:18:44.527Z,0.00
2019-04-25T00:19:55.750Z,0.00
2019-04-25T00:21:06.975Z,0.00
2019-04-25T00:22:17.693Z,0.00
2019-04-25T00:23:28.917Z,0.00
2019-04-25T00:24:41.462Z,0.00
2019-04-25T00:25:51.323Z,0.00
2019-04-25T00:27:02.243Z,0.00
2019-04-25T00:28:12.805Z,0.00
2019-04-25T00:29:24.016Z,0.00
2019-04-25T00:30:35.245Z,0.00
2019-04-25T00:31:47.215Z,0.00
2019-04-25T00:32:57.697Z,0.00
2019-04-25T00:34:08.904Z,0.00
2019-04-25T00:35:21.626Z,0.00
2019-04-25T00:36:31.835Z,0.00
2019-04-25T00:37:44.304Z,0.00
2019-04-25T00:38:53.332Z,0.00
2019-04-25T00:40:04.494Z,0.00
2019-04-25T00:41:15.705Z,0.00
2019-04-25T00:42:26.908Z,0.00
2019-04-25T00:43:38.119Z,0.00
2019-04-25T00:44:49.590Z,0.00
2019-04-25T00:46:01.507Z,0.00
2019-04-25T00:47:11.760Z,0.00
2019-04-25T00:48:22.475Z,0.00
2019-04-25T00:49:33.177Z,0.00
2019-04-25T00:50:44.564Z,0.00
2019-04-25T00:51:55.585Z,0.00
2019-04-25T00:53:06.296Z,0.00
2019-04-25T00:54:17.518Z,0.00
2019-04-25T00:55:28.989Z,0.00
2019-04-25T00:56:39.914Z,0.00
2019-04-25T00:57:52.540Z,0.00
2019-04-25T00:59:02.310Z,0.00
2019-04-25T01:00:13.009Z,0.00
2019-04-25T01:01:26.179Z,0.00
2019-04-25T01:02:38.370Z,0.00
2019-04-25T01:03:49.589Z,0.00
2019-04-25T01:05:01.875Z,0.00
2019-04-25T01:06:12.039Z,0.00
2019-04-25T01:07:22.482Z,0.00
2019-04-25T01:08:33.380Z,0.00
2019-04-25T01:09:44.592Z,0.00
2019-04-25T01:10:55.782Z,0.00
2019-04-25T01:12:06.494Z,0.00
2019-04-25T01:13:17.690Z,0.00
2019-04-25T01:14:28.882Z,0.00
2019-04-25T01:15:40.065Z,0.00
2019-04-25T01:16:52.689Z,0.00
2019-04-25T01:18:01.972Z,0.00
2019-04-25T01:19:13.410Z,0.00
2019-04-25T01:20:24.349Z,0.00
2019-04-25T01:21:35.545Z,0.00
2019-04-25T01:22:47.191Z,0.00
2019-04-25T01:23:57.955Z,0.00
2019-04-25T01:25:09.133Z,0.00
2019-04-25T01:26:20.324Z,0.00
2019-04-25T01:27:31.026Z,0.00
2019-04-25T01:28:43.850Z,0.00
2019-04-25T01:29:54.436Z,0.00
2019-04-25T01:31:04.654Z,0.00
2019-04-25T01:32:15.836Z,0.00
2019-04-25T01:33:27.015Z,0.00
2019-04-25T01:34:38.202Z,0.00
2019-04-25T01:35:48.894Z,0.00
2019-04-25T01:37:00.084Z,0.00
2019-04-25T01:38:10.781Z,0.00
2019-04-25T01:39:21.514Z,0.00
2019-04-25T01:40:33.387Z,0.00
2019-04-25T01:41:44.221Z,0.00
2019-04-25T01:42:55.845Z,0.00
2019-04-25T01:44:06.738Z,0.00
2019-04-25T01:45:18.918Z,0.00
2019-04-25T01:46:30.101Z,0.00
2019-04-25T01:47:41.299Z,0.00
2019-04-25T01:48:52.660Z,0.00
2019-04-25T01:50:03.976Z,0.00
2019-04-25T01:51:14.382Z,0.00
2019-04-25T01:52:25.519Z,0.00
2019-04-25T01:53:36.707Z,0.00
2019-04-25T01:54:49.203Z,0.00
2019-04-25T01:56:04.077Z,0.00
2019-04-25T01:57:10.256Z,0.00
2019-04-25T01:58:20.951Z,0.00
2019-04-25T01:59:33.695Z,0.00
2019-04-25T02:00:44.923Z,0.00
2019-04-25T02:01:54.594Z,0.00
2019-04-25T02:03:05.178Z,0.00
2019-04-25T02:04:15.874Z,0.00
2019-04-25T02:05:27.059Z,0.00
2019-04-25T02:06:37.754Z,0.00
2019-04-25T02:07:48.930Z,0.00
2019-04-25T02:09:00.123Z,0.00
2019-04-25T02:10:11.308Z,0.00
2019-04-25T02:11:21.991Z,0.00
2019-04-25T02:12:33.594Z,0.00
2019-04-25T02:13:43.888Z,0.00
2019-04-25T02:14:55.993Z,0.00
2019-04-25T02:16:06.216Z,0.00
2019-04-25T02:17:17.394Z,0.00
2019-04-25T02:18:28.566Z,0.00
2019-04-25T02:19:39.763Z,0.00
2019-04-25T02:20:51.556Z,0.00
2019-04-25T02:22:03.893Z,0.00
2019-04-25T02:23:14.170Z,0.00
2019-04-25T02:24:24.514Z,0.00
2019-04-25T02:25:35.678Z,0.00
2019-04-25T02:26:46.852Z,0.00
2019-04-25T02:28:00.955Z,0.00
2019-04-25T02:29:09.196Z,0.00
2019-04-25T02:30:20.487Z,0.00
2019-04-25T02:31:31.667Z,0.00
2019-04-25T02:32:44.207Z,0.00
2019-04-25T02:33:56.999Z,0.00
2019-04-25T02:35:09.109Z,0.00
2019-04-25T02:36:16.183Z,0.00
2019-04-25T02:37:27.362Z,0.00
2019-04-25T02:38:38.531Z,0.00
2019-04-25T02:39:49.707Z,0.00
2019-04-25T02:41:02.823Z,0.00
2019-04-25T02:42:16.188Z,0.00
2019-04-25T02:43:23.930Z,0.00
2019-04-25T02:44:34.508Z,0.00
2019-04-25T02:45:44.604Z,0.00
2019-04-25T02:46:57.549Z,0.00
2019-04-25T02:48:07.083Z,0.00
2019-04-25T02:49:29.282Z,0.00
2019-04-25T02:50:29.012Z,0.00
2019-04-25T02:51:39.883Z,0.00
2019-04-25T02:52:51.048Z,0.00
2019-04-25T02:54:05.232Z,0.00
2019-04-25T02:55:28.031Z,0.00
2019-04-25T02:56:33.194Z,0.00
2019-04-25T02:57:35.822Z,0.00
2019-04-25T02:58:46.990Z,0.00
2019-04-25T02:59:58.479Z,0.00
2019-04-25T03:01:18.131Z,0.00
2019-04-25T03:02:20.062Z,0.00
2019-04-25T03:03:31.271Z,0.00
2019-04-25T03:04:44.463Z,0.00
2019-04-25T03:05:54.955Z,0.00
2019-04-25T03:07:08.127Z,0.00
2019-04-25T03:08:16.006Z,0.00
2019-04-25T03:09:27.188Z,0.00
2019-04-25T03:10:37.900Z,0.00
2019-04-25T03:11:49.081Z,0.00
2019-04-25T03:13:00.686Z,0.00
2019-04-25T03:14:11.443Z,0.00
2019-04-25T03:15:24.392Z,0.00
2019-04-25T03:16:34.782Z,0.00
2019-04-25T03:17:45.007Z,0.00
2019-04-25T03:18:55.705Z,0.00
2019-04-25T03:20:11.140Z,0.00
2019-04-25T03:21:17.717Z,0.00
2019-04-25T03:22:28.759Z,0.00
2019-04-25T03:23:42.572Z,0.00
2019-04-25T03:24:50.631Z,0.00
2019-04-25T03:26:03.820Z,0.00
2019-04-25T03:27:14.249Z,0.00
2019-04-25T03:28:23.932Z,0.00
2019-04-25T03:29:34.891Z,0.00
2019-04-25T03:30:45.587Z,0.00
2019-04-25T03:31:56.418Z,0.00
2019-04-25T03:33:12.673Z,0.00
2019-04-25T03:34:20.616Z,0.00
2019-04-25T03:35:29.329Z,0.00
2019-04-25T03:36:40.019Z,0.00
2019-04-25T03:37:51.205Z,0.00
2019-04-25T03:39:03.970Z,0.00
2019-04-25T03:40:14.043Z,0.00
2019-04-25T03:41:24.869Z,4.00
2019-04-25T03:42:36.074Z,4.00
2019-04-25T03:43:46.780Z,0.00
2019-04-25T03:44:57.940Z,4.00
2019-04-25T03:46:08.637Z,8.00
2019-04-25T03:47:19.330Z,4.00
2019-04-25T03:48:30.547Z,8.00
2019-04-25T03:49:43.327Z,12.00
2019-04-25T03:50:53.961Z,12.00
2019-04-25T03:52:05.235Z,16.00
2019-04-25T03:53:14.812Z,16.00
2019-04-25T03:54:25.500Z,20.00
2019-04-25T03:55:36.375Z,24.00
2019-04-25T03:56:53.557Z,32.00
2019-04-25T03:57:57.960Z,40.00
2019-04-25T03:59:09.154Z,44.00
2019-04-25T04:00:20.151Z,56.00
2019-04-25T04:01:31.337Z,64.00
2019-04-25T04:02:44.108Z,76.00
2019-04-25T04:03:53.859Z,88.00
2019-04-25T04:05:06.915Z,104.00
2019-04-25T04:06:16.105Z,116.00
2019-04-25T04:07:27.305Z,136.00
2019-04-25T04:08:38.521Z,156.00
2019-04-25T04:09:49.700Z,176.00
2019-04-25T04:11:01.377Z,200.00
2019-04-25T04:12:12.563Z,220.00
2019-04-25T04:13:24.332Z,248.00
2019-04-25T04:14:34.931Z,276.00
2019-04-25T04:15:46.141Z,304.00
2019-04-25T04:16:57.328Z,332.00
2019-04-25T04:18:08.630Z,372.00
2019-04-25T04:19:19.739Z,404.00
2019-04-25T04:20:30.932Z,440.00
2019-04-25T04:21:43.231Z,480.00
2019-04-25T04:22:53.408Z,516.00
2019-04-25T04:24:05.296Z,552.00
2019-04-25T04:25:15.949Z,588.00
2019-04-25T04:26:26.905Z,620.00
2019-04-25T04:27:38.105Z,660.00
2019-04-25T04:28:50.296Z,704.00
2019-04-25T04:30:04.110Z,740.00
2019-04-25T04:31:14.363Z,784.00
2019-04-25T04:32:24.883Z,824.00
2019-04-25T04:33:36.099Z,876.00
2019-04-25T04:34:47.310Z,932.00
2019-04-25T04:35:58.501Z,984.00
2019-04-25T04:37:09.206Z,1036.00
2019-04-25T04:38:20.714Z,1080.00
2019-04-25T04:39:33.713Z,1124.00
2019-04-25T04:40:44.145Z,1168.00
2019-04-25T04:41:55.500Z,1208.00
2019-04-25T04:43:05.513Z,1252.00
2019-04-25T04:44:16.719Z,1292.00
2019-04-25T04:45:27.917Z,1336.00
2019-04-25T04:46:39.129Z,1376.00
2019-04-25T04:47:50.347Z,1428.00
2019-04-25T04:49:03.886Z,1468.00
2019-04-25T04:50:14.479Z,1508.00
2019-04-25T04:51:24.981Z,1540.00
2019-04-25T04:52:36.200Z,1572.00
2019-04-25T04:53:47.389Z,1612.00
2019-04-25T04:55:06.494Z,1648.00
2019-04-25T04:56:09.828Z,1676.00
2019-04-25T04:57:28.915Z,1712.00
2019-04-25T04:58:32.256Z,1744.00
2019-04-25T04:59:43.903Z,1776.00
2019-04-25T05:00:54.179Z,1808.00
2019-04-25T05:02:05.379Z,1836.00
2019-04-25T05:03:16.908Z,1868.00
2019-04-25T05:04:27.799Z,1900.00
2019-04-25T05:05:39.018Z,1932.00
2019-04-25T05:06:50.222Z,1960.00
2019-04-25T05:08:01.498Z,1988.00
2019-04-25T05:09:15.165Z,2016.00
2019-04-25T05:10:24.555Z,2044.00
2019-04-25T05:11:34.661Z,2072.00
2019-04-25T05:12:45.880Z,2100.00
2019-04-25T05:13:57.098Z,2128.00
2019-04-25T05:15:08.328Z,2160.00
2019-04-25T05:16:19.869Z,2192.00
2019-04-25T05:17:30.773Z,2220.00
2019-04-25T05:18:43.728Z,2248.00
2019-04-25T05:19:54.202Z,2272.00
2019-04-25T05:21:05.479Z,2304.00
2019-04-25T05:22:16.912Z,2348.00
2019-04-25T05:23:27.934Z,2380.00
2019-04-25T05:24:39.204Z,2412.00
2019-04-25T05:25:50.460Z,2440.00
2019-04-25T05:27:01.692Z,2464.00
2019-04-25T05:28:13.152Z,2476.00
2019-04-25T05:29:26.304Z,2492.00
2019-04-25T05:30:34.865Z,2492.00
2019-04-25T05:31:46.080Z,2496.00
2019-04-25T05:32:57.305Z,2504.00
2019-04-25T05:34:08.537Z,2512.00
2019-04-25T05:35:19.988Z,2516.00
2019-04-25T05:36:30.993Z,2528.00
2019-04-25T05:37:43.599Z,2544.00
2019-04-25T05:38:53.880Z,2556.00
2019-04-25T05:40:05.657Z,2576.00
2019-04-25T05:41:16.882Z,2600.00
2019-04-25T05:42:27.134Z,2624.00
2019-04-25T05:43:38.492Z,2652.00
2019-04-25T05:44:49.736Z,2688.00
2019-04-25T05:46:01.085Z,2724.00
2019-04-25T05:47:12.318Z,2764.00
2019-04-25T05:48:25.075Z,2808.00
2019-04-25T05:49:34.344Z,2868.00
2019-04-25T05:50:45.544Z,2952.00
2019-04-25T05:51:57.772Z,3052.00
2019-04-25T05:53:09.020Z,3136.00
2019-04-25T05:54:20.547Z,3164.00
2019-04-25T05:55:31.089Z,3180.00
2019-04-25T05:56:43.801Z,3188.00
2019-04-25T05:57:53.699Z,3320.00
2019-04-25T05:59:05.488Z,3872.00
2019-04-25T06:00:17.469Z,4752.00
2019-04-25T06:01:29.275Z,5556.00
2019-04-25T06:02:38.095Z,7140.00
2019-04-25T06:03:49.367Z,8348.00
2019-04-25T06:05:00.604Z,9048.00
2019-04-25T06:06:13.337Z,8976.00
2019-04-25T06:07:25.434Z,7200.00
2019-04-25T06:08:34.714Z,5752.00
2019-04-25T06:09:45.969Z,5108.00
2019-04-25T06:10:57.229Z,5044.00
2019-04-25T06:12:07.998Z,5344.00
2019-04-25T06:13:19.607Z,5652.00
2019-04-25T06:14:30.529Z,5492.00
2019-04-25T06:15:43.290Z,5480.00
2019-04-25T06:16:53.609Z,5320.00
2019-04-25T06:18:04.343Z,5080.00
2019-04-25T06:19:18.545Z,4972.00
2019-04-25T06:20:27.596Z,4452.00
2019-04-25T06:21:38.200Z,4204.00
2019-04-25T06:22:49.930Z,4120.00
2019-04-25T06:24:01.232Z,3932.00
2019-04-25T06:25:15.960Z,3748.00
2019-04-25T06:26:34.741Z,3648.00
2019-04-25T06:27:35.317Z,3632.00
2019-04-25T06:28:53.640Z,3568.00
2019-04-25T06:30:00.614Z,3560.00
2019-04-25T06:31:10.432Z,3496.00
2019-04-25T06:32:21.393Z,3468.00
2019-04-25T06:33:32.367Z,3420.00
2019-04-25T06:34:44.173Z,3388.00
2019-04-25T06:35:54.756Z,3368.00
2019-04-25T06:37:06.222Z,3312.00
2019-04-25T06:38:16.557Z,3308.00
2019-04-25T06:39:28.000Z,3292.00
2019-04-25T06:40:39.093Z,3304.00
2019-04-25T06:41:50.363Z,3296.00
2019-04-25T06:43:01.144Z,3288.00
2019-04-25T06:44:13.677Z,3268.00
2019-04-25T06:45:25.220Z,3260.00
2019-04-25T06:46:34.483Z,3252.00
2019-04-25T06:47:45.759Z,3240.00
2019-04-25T06:48:57.239Z,3228.00
2019-04-25T06:50:08.509Z,3216.00
2019-04-25T06:51:19.291Z,3212.00
2019-04-25T06:52:32.009Z,3216.00
2019-04-25T06:53:43.481Z,3228.00
2019-04-25T06:54:53.318Z,3236.00
2019-04-25T06:56:04.401Z,3248.00
2019-04-25T06:57:15.682Z,3256.00
2019-04-25T06:58:27.564Z,3264.00
2019-04-25T06:59:41.174Z,3272.00
2019-04-25T07:00:58.044Z,3284.00
2019-04-25T07:01:59.797Z,3304.00
2019-04-25T07:03:11.074Z,3316.00
2019-04-25T07:04:25.213Z,3336.00
2019-04-25T07:05:40.177Z,3340.00
2019-04-25T07:06:45.622Z,3368.00
2019-04-25T07:07:56.689Z,3368.00
2019-04-25T07:09:08.162Z,3364.00
2019-04-25T07:10:19.741Z,3368.00
2019-04-25T07:11:31.107Z,3376.00
2019-04-25T07:12:41.906Z,3396.00
2019-04-25T07:13:53.711Z,3412.00
2019-04-25T07:15:04.488Z,3440.00
2019-04-25T07:16:15.783Z,3460.00
2019-04-25T07:17:26.588Z,3476.00
2019-04-25T07:18:37.873Z,3488.00
2019-04-25T07:19:49.164Z,3512.00
2019-04-25T07:21:00.481Z,3520.00
2019-04-25T07:22:11.767Z,3520.00
2019-04-25T07:23:23.681Z,3512.00
2019-04-25T07:24:35.214Z,3508.00
2019-04-25T07:25:44.680Z,3508.00
2019-04-25T07:26:55.980Z,3508.00
2019-04-25T07:28:07.276Z,3536.00
2019-04-25T07:29:18.571Z,3556.00
2019-04-25T07:30:43.819Z,3548.00
2019-04-25T07:31:41.173Z,3544.00
2019-04-25T07:32:53.993Z,3544.00
2019-04-25T07:34:04.780Z,3552.00
2019-04-25T07:35:16.067Z,3568.00
2019-04-25T07:36:28.224Z,3580.00
2019-04-25T07:37:41.595Z,3600.00
2019-04-25T07:38:49.584Z,3596.00
2019-04-25T07:40:00.875Z,3620.00
2019-04-25T07:41:14.673Z,3636.00
2019-04-25T07:42:23.915Z,3652.00
2019-04-25T07:43:35.424Z,3664.00
2019-04-25T07:44:51.665Z,3664.00
2019-04-25T07:45:56.399Z,3664.00
2019-04-25T07:47:07.205Z,3680.00
2019-04-25T07:48:18.015Z,3688.00
2019-04-25T07:49:30.514Z,3696.00
2019-04-25T07:50:41.163Z,3700.00
2019-04-25T07:51:53.674Z,3704.00
2019-04-25T07:53:03.627Z,3716.00
2019-04-25T07:54:14.596Z,3720.00
2019-04-25T07:55:25.402Z,3728.00
2019-04-25T07:56:37.693Z,3744.00
2019-04-25T07:57:48.019Z,3744.00
2019-04-25T07:58:59.333Z,3760.00
2019-04-25T08:00:10.653Z,3776.00
2019-04-25T08:01:21.471Z,3780.00
2019-04-25T08:02:33.841Z,3800.00
2019-04-25T08:03:43.961Z,3816.00
2019-04-25T08:04:55.878Z,3828.00
2019-04-25T08:06:05.718Z,3836.00
2019-04-25T08:07:16.543Z,3864.00
2019-04-25T08:08:28.185Z,3872.00
2019-04-25T08:09:38.289Z,3868.00
2019-04-25T08:10:49.102Z,3884.00
2019-04-25T08:11:59.932Z,3900.00
2019-04-25T08:13:10.754Z,3904.00
2019-04-25T08:14:21.574Z,3920.00
2019-04-25T08:15:33.861Z,3940.00
2019-04-25T08:16:44.277Z,3960.00
2019-04-25T08:17:54.098Z,3976.00
2019-04-25T08:19:04.887Z,3996.00
2019-04-25T08:20:15.716Z,4016.00
2019-04-25T08:21:26.558Z,4036.00
2019-04-25T08:22:50.103Z,4144.00
2019-04-25T08:23:48.329Z,4148.00
2019-04-25T08:24:59.159Z,4172.00
2019-04-25T08:26:10.002Z,4324.00
2019-04-25T08:27:20.824Z,4612.00
2019-04-25T08:28:32.449Z,4768.00
2019-04-25T08:29:43.623Z,4880.00
2019-04-25T08:30:54.784Z,4388.00
2019-04-25T08:32:04.612Z,4148.00
2019-04-25T08:33:15.338Z,4232.00
2019-04-25T08:34:26.178Z,4232.00
2019-04-25T08:35:38.171Z,4252.00
2019-04-25T08:36:48.403Z,4292.00
2019-04-25T08:37:59.448Z,4332.00
2019-04-25T08:39:10.283Z,4436.00
2019-04-25T08:40:21.160Z,4728.00
2019-04-25T08:41:34.158Z,5308.00
2019-04-25T08:42:44.169Z,6420.00
2019-04-25T08:43:54.441Z,7736.00
2019-04-25T08:45:04.545Z,9720.00
2019-04-25T08:46:15.406Z,8612.00
2019-04-25T08:47:26.257Z,8372.00
2019-04-25T08:48:37.119Z,10504.00
2019-04-25T08:49:49.506Z,11092.00
2019-04-25T08:50:58.846Z,12864.00
2019-04-25T08:52:10.722Z,15364.00
2019-04-25T08:53:21.592Z,17220.00
2019-04-25T08:54:35.583Z,18880.00
2019-04-25T08:55:45.689Z,18784.00
2019-04-25T08:56:55.252Z,18080.00
2019-04-25T08:58:06.143Z,18592.00
2019-04-25T08:59:17.041Z,19936.00
2019-04-25T09:00:27.945Z,20224.00
2019-04-25T09:01:40.637Z,19904.00
2019-04-25T09:02:49.766Z,19232.00
2019-04-25T09:04:03.145Z,20736.00
2019-04-25T09:05:13.931Z,23904.00
2019-04-25T09:06:24.314Z,27456.00
2019-04-25T09:07:35.364Z,28544.00
2019-04-25T09:08:46.548Z,28352.00
2019-04-25T09:09:55.923Z,28800.00
2019-04-25T09:11:06.891Z,30112.00
2019-04-25T09:12:17.866Z,30848.00
2019-04-25T09:13:28.858Z,30368.00
2019-04-25T09:14:39.854Z,29888.00
2019-04-25T09:15:50.862Z,29920.00
2019-04-25T09:17:03.246Z,30656.00
2019-04-25T09:18:14.126Z,31200.00
2019-04-25T09:19:24.188Z,30880.00
2019-04-25T09:21:49.506Z,33280.00
2019-04-25T09:22:57.538Z,33312.00
2019-04-25T09:24:08.898Z,33984.00
2019-04-25T09:25:19.964Z,35104.00
2019-04-25T09:26:31.034Z,35968.00
2019-04-25T09:27:43.311Z,35296.00
2019-04-25T09:28:54.188Z,33120.00
2019-04-25T09:30:05.779Z,32480.00
2019-04-25T09:31:16.489Z,32736.00
2019-04-25T09:32:27.590Z,32736.00
2019-04-25T09:33:39.134Z,32672.00
2019-04-25T09:34:50.116Z,33056.00
2019-04-25T09:36:00.927Z,33472.00
2019-04-25T09:37:12.042Z,35008.00
2019-04-25T09:38:24.417Z,35840.00
2019-04-25T09:39:35.605Z,35200.00
2019-04-25T09:40:46.370Z,34112.00
2019-04-25T09:41:56.577Z,34592.00
2019-04-25T09:43:07.736Z,33984.00
2019-04-25T09:44:18.887Z,33152.00
2019-04-25T09:45:30.040Z,32640.00
2019-04-25T09:46:41.859Z,31968.00
2019-04-25T09:47:53.300Z,31648.00
2019-04-25T09:49:04.227Z,31840.00
2019-04-25T09:50:14.679Z,32096.00
2019-04-25T09:51:25.846Z,32512.00
2019-04-25T09:52:37.764Z,33024.00
2019-04-25T09:53:51.321Z,32480.00
2019-04-25T09:55:00.422Z,31840.00
2019-04-25T09:56:12.128Z,32032.00
2019-04-25T09:57:23.411Z,31872.00
2019-04-25T09:58:34.513Z,32000.00
2019-04-25T09:59:46.216Z,32640.00
2019-04-25T10:00:56.875Z,33760.00
2019-04-25T10:02:08.577Z,34464.00
2019-04-25T10:03:19.770Z,35104.00
2019-04-25T10:04:30.951Z,34816.00
2019-04-25T10:05:42.667Z,33952.00
2019-04-25T10:06:53.622Z,32992.00
2019-04-25T10:08:04.559Z,32576.00
2019-04-25T10:09:15.802Z,34176.00
2019-04-25T10:10:26.955Z,35520.00
2019-04-25T10:11:39.850Z,36992.00
2019-04-25T10:12:50.045Z,37376.00
2019-04-25T10:14:01.087Z,36320.00
2019-04-25T10:15:14.124Z,35776.00
2019-04-25T10:16:24.023Z,37856.00
2019-04-25T10:17:35.245Z,39296.00
2019-04-25T10:18:47.638Z,35008.00
2019-04-25T10:19:58.708Z,32800.00
2019-04-25T10:21:09.945Z,34368.00
2019-04-25T10:22:21.187Z,35040.00
2019-04-25T10:23:34.135Z,34816.00
2019-04-25T10:24:56.494Z,34688.00
2019-04-25T10:25:55.426Z,35232.00
2019-04-25T10:27:06.682Z,37344.00
2019-04-25T10:28:18.022Z,39392.00
2019-04-25T10:29:39.368Z,38336.00
2019-04-25T10:30:41.074Z,37696.00
2019-04-25T10:31:51.814Z,35808.00
2019-04-25T10:33:04.101Z,33056.00
2019-04-25T10:34:14.488Z,32352.00
2019-04-25T10:35:25.754Z,33824.00
2019-04-25T10:36:39.822Z,34848.00
2019-04-25T10:37:49.330Z,33824.00
2019-04-25T10:39:07.787Z,31840.00
2019-04-25T10:40:13.395Z,31040.00
2019-04-25T10:41:24.675Z,31552.00
2019-04-25T10:42:35.927Z,32512.00
2019-04-25T10:43:48.237Z,34048.00
2019-04-25T10:44:58.496Z,35520.00
2019-04-25T10:46:10.119Z,36288.00
2019-04-25T10:47:21.408Z,36160.00
2019-04-25T10:48:34.389Z,36384.00
2019-04-25T10:49:44.991Z,39712.00
2019-04-25T10:50:55.888Z,47040.00
2019-04-25T10:52:07.125Z,48384.00
2019-04-25T10:53:18.444Z,44512.00
2019-04-25T10:54:29.773Z,42368.00
2019-04-25T10:55:42.894Z,39264.00
2019-04-25T10:56:53.427Z,36096.00
2019-04-25T10:58:05.264Z,34528.00
2019-04-25T10:59:16.602Z,34752.00
2019-04-25T11:00:27.947Z,34432.00
2019-04-25T11:01:39.286Z,33088.00
2019-04-25T11:02:50.622Z,31584.00
2019-04-25T11:04:01.979Z,30208.00
2019-04-25T11:05:13.745Z,28960.00
2019-04-25T11:06:24.639Z,28768.00
2019-04-25T11:07:36.968Z,31296.00
2019-04-25T11:08:49.131Z,35872.00
2019-04-25T11:09:59.631Z,36448.00
2019-04-25T11:11:10.966Z,34976.00
2019-04-25T11:12:23.514Z,34496.00
2019-04-25T11:13:35.415Z,35040.00
2019-04-25T11:14:46.389Z,37472.00
2019-04-25T11:15:57.143Z,41472.00
2019-04-25T11:17:08.226Z,45248.00
2019-04-25T11:18:19.578Z,47872.00
2019-04-25T11:19:30.937Z,44352.00
2019-04-25T11:20:43.073Z,50848.00
2019-04-25T11:21:53.915Z,45536.00
2019-04-25T11:23:05.579Z,47136.00
2019-04-25T11:24:16.987Z,42016.00
2019-04-25T11:25:28.389Z,41408.00
2019-04-25T11:26:41.574Z,42400.00
2019-04-25T11:27:53.817Z,41408.00
2019-04-25T11:29:03.597Z,38624.00
2019-04-25T11:30:15.020Z,35424.00
2019-04-25T11:31:26.927Z,33120.00
2019-04-25T11:32:38.332Z,32064.00
2019-04-25T11:33:49.940Z,31904.00
2019-04-25T11:35:03.525Z,32000.00
2019-04-25T11:36:13.568Z,32896.00
2019-04-25T11:37:24.960Z,34848.00
2019-04-25T11:38:36.369Z,37600.00
2019-04-25T11:39:47.767Z,40512.00
2019-04-25T11:40:59.195Z,37440.00
2019-04-25T11:42:10.600Z,38080.00
2019-04-25T11:43:22.013Z,40096.00
2019-04-25T11:44:34.962Z,41600.00
2019-04-25T11:45:45.090Z,40672.00
2019-04-25T11:46:56.286Z,40480.00
2019-04-25T11:48:07.717Z,41920.00
2019-04-25T11:49:19.152Z,43360.00
2019-04-25T11:50:30.591Z,46016.00
2019-04-25T11:51:43.280Z,52224.00
2019-04-25T11:52:54.736Z,53280.00
2019-04-25T11:54:05.474Z,47360.00
2019-04-25T11:55:16.946Z,42208.00
2019-04-25T11:56:28.418Z,39008.00
2019-04-25T11:57:39.901Z,36448.00
2019-04-25T11:58:51.421Z,35136.00
2019-04-25T12:00:04.210Z,35296.00
2019-04-25T12:01:14.378Z,36000.00
2019-04-25T12:02:25.845Z,36672.00
2019-04-25T12:03:37.310Z,36960.00
2019-04-25T12:04:49.276Z,37600.00
2019-04-25T12:06:00.756Z,40352.00
2019-04-25T12:07:14.327Z,43872.00
2019-04-25T12:08:24.685Z,45376.00
2019-04-25T12:09:36.656Z,44224.00
2019-04-25T12:10:48.154Z,41696.00
2019-04-25T12:11:59.638Z,40384.00
2019-04-25T12:13:11.106Z,40544.00
2019-04-25T12:14:25.200Z,41056.00
2019-04-25T12:15:35.555Z,41856.00
2019-04-25T12:16:49.121Z,46464.00
2019-04-25T12:17:59.518Z,46272.00
2019-04-25T12:19:11.014Z,46112.00
2019-04-25T12:20:22.997Z,60640.00
2019-04-25T12:21:34.513Z,46688.00
2019-04-25T12:22:46.635Z,46400.00
2019-04-25T12:23:58.052Z,43872.00
2019-04-25T12:25:09.066Z,52288.00
2019-04-25T12:26:21.109Z,55840.00
2019-04-25T12:27:32.650Z,75584.00
2019-04-25T12:28:44.996Z,59232.00
2019-04-25T12:29:57.283Z,58432.00
2019-04-25T12:31:07.868Z,97024.00
2019-04-25T12:32:19.986Z,127872.00
2019-04-25T12:33:31.638Z,141952.00
2019-04-25T12:34:44.760Z,112960.00
2019-04-25T12:35:56.548Z,72544.00
2019-04-25T12:37:07.760Z,65728.00
2019-04-25T12:38:20.416Z,76416.00
2019-04-25T12:39:34.026Z,74496.00
2019-04-25T12:40:43.899Z,68352.00
2019-04-25T12:41:56.092Z,51584.00
2019-04-25T12:43:07.352Z,57088.00
2019-04-25T12:44:19.568Z,59360.00
2019-04-25T12:45:31.295Z,69024.00
2019-04-25T12:46:43.650Z,71840.00
2019-04-25T12:47:58.005Z,66816.00
2019-04-25T12:49:06.981Z,128064.00
2019-04-25T12:50:19.233Z,127136.00
2019-04-25T12:51:31.033Z,124704.00
2019-04-25T12:52:43.311Z,102752.00
2019-04-25T12:53:55.223Z,122144.00
2019-04-25T12:55:06.601Z,117728.00
2019-04-25T12:56:20.363Z,109152.00
2019-04-25T12:57:30.940Z,102208.00
2019-04-25T12:58:44.392Z,107072.00
2019-04-25T12:59:56.371Z,103008.00
2019-04-25T13:01:08.358Z,100448.00
2019-04-25T13:02:20.851Z,100160.00
2019-04-25T13:03:33.669Z,96352.00
2019-04-25T13:04:45.499Z,89152.00
2019-04-25T13:05:58.424Z,83328.00
2019-04-25T13:07:10.036Z,88768.00
2019-04-25T13:08:22.067Z,87968.00
2019-04-25T13:09:34.105Z,89376.00
2019-04-25T13:10:46.135Z,101056.00
2019-04-25T13:11:58.172Z,97536.00
2019-04-25T13:13:10.223Z,95040.00
2019-04-25T13:14:23.033Z,95424.00
2019-04-25T13:15:35.316Z,93440.00
2019-04-25T13:16:47.377Z,94880.00
2019-04-25T13:17:59.952Z,92288.00
2019-04-25T13:19:20.027Z,90080.00
2019-04-25T13:20:24.090Z,88704.00
2019-04-25T13:21:36.661Z,84128.00
2019-04-25T13:22:49.238Z,89152.00
2019-04-25T13:24:01.317Z,92576.00
2019-04-25T13:25:14.486Z,87648.00
2019-04-25T13:26:26.560Z,87808.00
2019-04-25T13:27:38.648Z,87648.00
2019-04-25T13:28:50.739Z,82144.00
2019-04-25T13:30:03.749Z,84032.00
2019-04-25T13:31:15.098Z,80736.00
2019-04-25T13:32:26.986Z,88160.00
2019-04-25T13:33:39.077Z,72544.00
2019-04-25T13:34:51.163Z,85888.00
2019-04-25T13:36:04.246Z,85920.00
2019-04-25T13:37:16.584Z,82368.00
2019-04-25T13:38:28.486Z,82848.00
2019-04-25T13:39:40.557Z,82208.00
2019-04-25T13:40:52.620Z,84000.00
2019-04-25T13:42:05.528Z,81920.00
2019-04-25T13:43:16.749Z,90784.00
2019-04-25T13:44:29.313Z,82816.00
2019-04-25T13:45:41.367Z,75232.00
2019-04-25T13:46:53.462Z,83872.00
2019-04-25T13:48:06.491Z,91072.00
2019-04-25T13:49:19.466Z,82400.00
2019-04-25T13:50:30.591Z,76864.00
2019-04-25T13:51:42.639Z,66848.00
2019-04-25T13:52:54.686Z,69280.00
2019-04-25T13:54:06.718Z,68320.00
2019-04-25T13:55:18.746Z,74848.00
2019-04-25T13:56:31.258Z,71840.00
2019-04-25T13:57:43.268Z,52352.00
2019-04-25T13:58:55.282Z,75040.00
2019-04-25T14:00:07.293Z,70688.00
2019-04-25T14:01:20.944Z,65984.00
2019-04-25T14:02:31.820Z,67456.00
2019-04-25T14:03:44.461Z,76096.00
2019-04-25T14:04:56.347Z,78080.00
2019-04-25T14:06:08.483Z,78976.00
2019-04-25T14:07:20.677Z,68128.00
2019-04-25T14:08:33.466Z,51360.00
2019-04-25T14:09:44.775Z,64000.00
2019-04-25T14:10:56.584Z,46080.00
2019-04-25T14:12:08.602Z,71008.00
2019-04-25T14:13:21.150Z,58496.00
2019-04-25T14:14:34.380Z,52544.00
2019-04-25T14:15:45.089Z,72960.00
2019-04-25T14:16:56.610Z,58624.00
2019-04-25T14:18:08.614Z,41760.00
2019-04-25T14:19:21.886Z,79520.00
2019-04-25T14:20:32.699Z,72864.00
2019-04-25T14:21:44.640Z,36320.00
2019-04-25T14:22:56.654Z,66048.00
2019-04-25T14:24:19.941Z,80832.00
2019-04-25T14:25:20.805Z,78880.00
2019-04-25T14:26:32.852Z,29600.00
2019-04-25T14:27:44.901Z,80000.00
2019-04-25T14:28:56.974Z,32704.00
2019-04-25T14:30:09.040Z,71136.00
2019-04-25T14:31:33.598Z,72800.00
2019-04-25T14:32:33.880Z,65440.00
2019-04-25T14:33:45.242Z,57792.00
2019-04-25T14:34:57.305Z,36448.00
2019-04-25T14:36:09.371Z,54208.00